createdAt,value
2018-08-02T00:00:35.811Z,58.30
2018-08-02T00:03:03.068Z,58.40
2018-08-02T00:05:30.280Z,58.30
2018-08-02T00:07:57.456Z,58.00
2018-08-02T00:10:24.644Z,58.10
2018-08-02T00:12:51.876Z,58.20
2018-08-02T00:15:19.054Z,58.20
2018-08-02T00:17:46.279Z,58.20
2018-08-02T00:20:13.500Z,58.40
2018-08-02T00:22:40.793Z,58.20
2018-08-02T00:25:08.592Z,58.20
2018-08-02T00:27:35.833Z,58.30
2018-08-02T00:30:04.533Z,58.50
2018-08-02T00:32:31.764Z,58.40
2018-08-02T00:34:58.949Z,58.30
2018-08-02T00:37:26.380Z,58.20
2018-08-02T00:39:53.520Z,58.40
2018-08-02T00:42:20.764Z,58.60
2018-08-02T00:44:47.924Z,58.60
2018-08-02T00:47:15.268Z,58.70
2018-08-02T00:49:42.476Z,58.60
2018-08-02T00:52:09.900Z,58.80
2018-08-02T00:57:04.572Z,58.90
2018-08-02T00:59:31.779Z,58.90
2018-08-02T01:01:58.956Z,58.90
2018-08-02T01:04:26.081Z,59.00
2018-08-02T01:06:53.249Z,59.00
2018-08-02T01:09:20.492Z,58.90
2018-08-02T01:11:47.722Z,59.00
2018-08-02T01:14:14.940Z,58.80
2018-08-02T01:16:42.145Z,58.90
2018-08-02T01:19:09.421Z,59.00
2018-08-02T01:21:36.680Z,59.00
2018-08-02T01:24:03.932Z,59.20
2018-08-02T01:26:31.132Z,59.10
2018-08-02T01:28:58.380Z,59.10
2018-08-02T01:31:25.565Z,59.20
2018-08-02T01:33:53.247Z,59.20
2018-08-02T01:36:20.408Z,59.30
2018-08-02T01:38:47.608Z,59.20
2018-08-02T01:41:14.882Z,59.10
2018-08-02T01:43:42.128Z,59.30
2018-08-02T01:46:09.343Z,59.30
2018-08-02T01:48:36.538Z,59.20
2018-08-02T01:51:03.756Z,59.20
2018-08-02T01:53:30.940Z,59.30
2018-08-02T01:55:58.152Z,59.20
2018-08-02T01:58:25.388Z,59.20
2018-08-02T02:00:52.759Z,59.30
2018-08-02T02:03:19.972Z,59.70
2018-08-02T02:05:47.145Z,59.30
2018-08-02T02:08:14.308Z,59.40
2018-08-02T02:10:41.526Z,59.60
2018-08-02T02:13:12.080Z,59.70
2018-08-02T02:15:39.962Z,59.70
2018-08-02T02:18:07.196Z,59.70
2018-08-02T02:20:34.665Z,59.90
2018-08-02T02:23:01.855Z,59.90
2018-08-02T02:25:29.097Z,59.90
2018-08-02T02:27:56.336Z,59.80
2018-08-02T02:30:23.627Z,60.00
2018-08-02T02:32:50.836Z,60.00
2018-08-02T02:35:18.043Z,60.00
2018-08-02T02:37:45.232Z,60.00
2018-08-02T02:40:12.432Z,60.10
2018-08-02T02:42:39.669Z,60.10
2018-08-02T02:45:06.883Z,60.20
2018-08-02T02:47:34.166Z,60.10
2018-08-02T02:50:01.392Z,60.30
2018-08-02T02:52:29.074Z,60.30
2018-08-02T02:54:56.269Z,60.40
2018-08-02T02:57:23.529Z,60.50
2018-08-02T02:59:50.680Z,60.60
2018-08-02T03:02:17.936Z,60.60
2018-08-02T03:04:45.211Z,60.60
2018-08-02T03:07:12.485Z,60.60
2018-08-02T03:09:39.752Z,60.80
2018-08-02T03:12:07.009Z,60.70
2018-08-02T03:14:34.356Z,60.90
2018-08-02T03:17:01.608Z,60.80
2018-08-02T03:19:28.881Z,60.60
2018-08-02T03:21:56.145Z,60.70
2018-08-02T03:24:23.976Z,60.80
2018-08-02T03:26:51.184Z,60.90
2018-08-02T03:29:18.424Z,61.00
2018-08-02T03:31:45.648Z,61.00
2018-08-02T03:34:12.840Z,61.30
2018-08-02T03:36:40.100Z,61.10
2018-08-02T03:39:08.365Z,61.20
2018-08-02T03:41:35.935Z,61.30
2018-08-02T03:44:03.204Z,61.30
2018-08-02T03:46:30.469Z,61.40
2018-08-02T03:48:57.636Z,61.20
2018-08-02T03:51:24.835Z,61.10
2018-08-02T03:53:52.117Z,61.30
2018-08-02T03:56:19.313Z,61.30
2018-08-02T03:58:46.489Z,61.40
2018-08-02T04:01:13.664Z,61.50
2018-08-02T04:03:40.813Z,61.70
2018-08-02T04:06:08.044Z,61.70
2018-08-02T04:08:35.279Z,61.50
2018-08-02T04:11:02.452Z,61.60
2018-08-02T04:13:29.636Z,61.50
2018-08-02T04:15:56.852Z,61.70
2018-08-02T04:18:24.054Z,61.70
2018-08-02T04:20:51.370Z,61.80
2018-08-02T04:23:18.577Z,62.50
2018-08-02T04:25:45.815Z,62.00
2018-08-02T04:28:13.005Z,62.00
2018-08-02T04:30:40.220Z,62.10
2018-08-02T04:33:07.456Z,62.10
2018-08-02T04:35:34.609Z,62.20
2018-08-02T04:38:01.877Z,62.40
2018-08-02T04:40:29.123Z,62.60
2018-08-02T04:42:56.355Z,62.50
2018-08-02T04:45:23.588Z,62.60
2018-08-02T04:47:50.800Z,62.70
2018-08-02T04:50:17.937Z,62.80
2018-08-02T04:52:45.168Z,62.60
2018-08-02T04:55:12.396Z,62.50
2018-08-02T04:57:39.568Z,62.40
2018-08-02T05:00:06.780Z,62.60
2018-08-02T05:02:34.316Z,63.00
2018-08-02T05:05:01.529Z,63.20
2018-08-02T05:07:28.796Z,63.20
2018-08-02T05:09:55.983Z,63.60
2018-08-02T05:12:23.148Z,63.90
2018-08-02T05:14:50.328Z,64.00
2018-08-02T05:17:17.528Z,64.20
2018-08-02T05:19:44.748Z,64.30
2018-08-02T05:22:11.996Z,64.10
2018-08-02T05:24:39.162Z,64.40
2018-08-02T05:27:06.436Z,64.20
2018-08-02T05:29:33.713Z,64.50
2018-08-02T05:32:00.960Z,64.50
2018-08-02T05:34:28.402Z,64.70
2018-08-02T05:36:55.681Z,64.90
2018-08-02T05:39:22.473Z,65.10
2018-08-02T05:41:49.720Z,65.10
2018-08-02T05:44:17.599Z,65.00
2018-08-02T05:46:44.820Z,64.80
2018-08-02T05:49:12.012Z,64.90
2018-08-02T05:51:39.196Z,64.70
2018-08-02T05:54:06.417Z,64.60
2018-08-02T05:56:33.624Z,64.50
2018-08-02T05:59:00.853Z,64.50
2018-08-02T06:01:28.056Z,64.60
2018-08-02T06:03:55.324Z,64.50
2018-08-02T06:08:50.383Z,64.50
2018-08-02T06:11:17.600Z,64.60
2018-08-02T06:13:44.789Z,64.60
2018-08-02T06:16:12.065Z,64.50
2018-08-02T06:18:39.286Z,64.60
2018-08-02T06:21:06.523Z,64.70
2018-08-02T06:23:33.696Z,64.60
2018-08-02T06:26:00.893Z,64.60
2018-08-02T06:28:28.248Z,64.80
2018-08-02T06:30:55.376Z,64.70
2018-08-02T06:33:22.621Z,64.60
2018-08-02T06:35:49.864Z,64.70
2018-08-02T06:38:17.124Z,64.60
2018-08-02T06:40:44.363Z,64.70
2018-08-02T06:43:11.632Z,64.60
2018-08-02T06:45:38.905Z,64.60
2018-08-02T06:48:05.144Z,64.50
2018-08-02T06:50:32.431Z,64.70
2018-08-02T06:52:59.645Z,64.70
2018-08-02T06:55:26.864Z,64.70
2018-08-02T06:57:54.121Z,64.70
2018-08-02T07:00:21.343Z,64.50
2018-08-02T07:02:48.613Z,64.50
2018-08-02T07:05:15.769Z,64.40
2018-08-02T07:07:42.991Z,64.60
2018-08-02T07:10:10.176Z,64.50
2018-08-02T07:12:37.752Z,64.60
2018-08-02T07:15:06.488Z,64.50
2018-08-02T07:17:33.741Z,64.00
2018-08-02T07:20:00.948Z,64.50
2018-08-02T07:24:55.386Z,64.60
2018-08-02T07:27:22.632Z,64.60
2018-08-02T07:29:49.794Z,64.50
2018-08-02T07:32:17.008Z,64.50
2018-08-02T07:34:44.272Z,64.60
2018-08-02T07:37:12.004Z,64.60
2018-08-02T07:39:39.357Z,64.60
2018-08-02T07:42:06.584Z,64.50
2018-08-02T07:44:33.889Z,64.50
2018-08-02T07:47:01.078Z,64.50
2018-08-02T07:49:28.272Z,64.50
2018-08-02T07:51:55.540Z,64.40
2018-08-02T07:54:22.732Z,64.80
2018-08-02T07:56:49.924Z,64.40
2018-08-02T07:59:17.180Z,64.40
2018-08-02T08:01:44.352Z,65.00
2018-08-02T08:04:11.580Z,64.30
2018-08-02T08:06:38.743Z,64.30
2018-08-02T08:09:07.649Z,64.30
2018-08-02T08:11:34.970Z,64.30
2018-08-02T08:14:02.184Z,64.20
2018-08-02T08:16:29.345Z,64.20
2018-08-02T08:18:56.605Z,64.30
2018-08-02T08:21:23.980Z,64.40
2018-08-02T08:23:51.156Z,64.30
2018-08-02T08:26:18.416Z,64.40
2018-08-02T08:28:45.668Z,64.40
2018-08-02T08:31:12.841Z,64.50
2018-08-02T08:33:40.089Z,64.40
2018-08-02T08:36:07.413Z,64.40
2018-08-02T08:38:34.556Z,64.40
2018-08-02T08:41:01.750Z,64.40
2018-08-02T08:43:29.183Z,64.50
2018-08-02T08:45:56.276Z,64.40
2018-08-02T08:48:23.556Z,64.50
2018-08-02T08:50:51.012Z,64.50
2018-08-02T08:53:18.249Z,64.60
2018-08-02T08:55:45.540Z,64.50
2018-08-02T08:58:12.772Z,64.80
2018-08-02T09:00:39.944Z,64.50
2018-08-02T09:03:07.179Z,64.50
2018-08-02T09:05:34.384Z,64.60
2018-08-02T09:08:01.660Z,64.90
2018-08-02T09:10:28.889Z,64.40
2018-08-02T09:12:56.174Z,64.50
2018-08-02T09:15:23.553Z,64.50
2018-08-02T09:17:50.712Z,64.50
2018-08-02T09:20:17.968Z,64.50
2018-08-02T09:22:45.105Z,64.50
2018-08-02T09:25:12.300Z,64.40
2018-08-02T09:27:39.496Z,64.40
2018-08-02T09:30:06.719Z,64.30
2018-08-02T09:32:34.029Z,64.30
2018-08-02T09:35:01.146Z,64.30
2018-08-02T09:37:28.420Z,64.40
2018-08-02T09:39:55.658Z,64.50
2018-08-02T09:42:22.872Z,64.50
2018-08-02T09:44:50.104Z,64.30
2018-08-02T09:47:17.332Z,64.30
2018-08-02T09:49:44.617Z,64.40
2018-08-02T09:52:11.859Z,64.40
2018-08-02T09:54:39.104Z,64.20
2018-08-02T09:57:06.886Z,64.20
2018-08-02T09:59:34.088Z,64.10
2018-08-02T10:02:04.604Z,63.80
2018-08-02T10:04:32.017Z,63.80
2018-08-02T10:06:59.224Z,63.70
2018-08-02T10:09:26.511Z,63.50
2018-08-02T10:11:53.788Z,63.30
2018-08-02T10:14:20.936Z,63.20
2018-08-02T10:16:48.197Z,63.00
2018-08-02T10:19:15.408Z,62.80
2018-08-02T10:21:42.571Z,62.80
2018-08-02T10:24:09.878Z,62.70
2018-08-02T10:26:37.098Z,62.60
2018-08-02T10:29:04.456Z,62.40
2018-08-02T10:31:31.706Z,62.30
2018-08-02T10:33:58.921Z,62.20
2018-08-02T10:36:26.120Z,62.00
2018-08-02T10:38:53.480Z,62.00
2018-08-02T10:41:20.672Z,62.10
2018-08-02T10:43:47.896Z,61.80
2018-08-02T10:46:15.180Z,61.70
2018-08-02T10:48:42.364Z,61.40
2018-08-02T10:51:09.608Z,61.40
2018-08-02T10:53:36.800Z,61.20
2018-08-02T10:56:04.100Z,61.00
2018-08-02T10:58:31.227Z,61.20
2018-08-02T11:00:58.491Z,61.00
2018-08-02T11:03:25.748Z,61.00
2018-08-02T11:05:53.020Z,60.90
2018-08-02T11:08:20.260Z,60.90
2018-08-02T11:10:47.513Z,60.80
2018-08-02T11:13:14.796Z,60.60
2018-08-02T11:15:42.060Z,60.30
2018-08-02T11:18:09.224Z,60.40
2018-08-02T11:20:36.384Z,61.00
2018-08-02T11:23:03.689Z,60.40
2018-08-02T11:25:30.872Z,60.30
2018-08-02T11:27:58.138Z,60.20
2018-08-02T11:30:25.385Z,60.20
2018-08-02T11:32:52.634Z,60.00
2018-08-02T11:35:19.903Z,60.00
2018-08-02T11:37:47.093Z,60.00
2018-08-02T11:40:14.468Z,59.90
2018-08-02T11:42:41.705Z,59.90
2018-08-02T11:45:08.932Z,59.60
2018-08-02T11:47:36.178Z,59.40
2018-08-02T11:50:03.424Z,59.50
2018-08-02T11:52:30.631Z,59.40
2018-08-02T11:54:58.060Z,59.20
2018-08-02T11:57:25.301Z,59.60
2018-08-02T11:59:52.489Z,58.90
2018-08-02T12:02:19.741Z,58.70
2018-08-02T12:04:46.970Z,58.60
2018-08-02T12:07:14.240Z,58.50
2018-08-02T12:09:41.494Z,58.40
2018-08-02T12:12:08.745Z,58.30
2018-08-02T12:14:35.946Z,58.40
2018-08-02T12:17:03.132Z,58.80
2018-08-02T12:19:30.268Z,58.40
2018-08-02T12:21:57.471Z,58.30
2018-08-02T12:24:24.676Z,58.20
2018-08-02T12:26:51.920Z,58.40
2018-08-02T12:29:19.123Z,58.10
2018-08-02T12:31:46.346Z,58.00
2018-08-02T12:34:13.554Z,57.90
2018-08-02T12:36:40.792Z,57.80
2018-08-02T12:39:08.927Z,57.70
2018-08-02T12:41:36.634Z,57.50
2018-08-02T12:44:03.940Z,57.60
2018-08-02T12:46:31.172Z,57.30
2018-08-02T12:48:58.414Z,57.60
2018-08-02T12:51:25.650Z,57.20
2018-08-02T12:53:52.828Z,57.20
2018-08-02T12:56:20.000Z,57.10
2018-08-02T12:58:47.180Z,57.00
2018-08-02T13:01:14.445Z,57.50
2018-08-02T13:03:41.627Z,56.90
2018-08-02T13:06:08.915Z,56.80
2018-08-02T13:08:36.114Z,56.70
2018-08-02T13:11:03.433Z,56.90
2018-08-02T13:13:30.560Z,56.80
2018-08-02T13:15:57.785Z,56.90
2018-08-02T13:18:24.954Z,57.00
2018-08-02T13:20:52.143Z,57.00
2018-08-02T13:23:19.433Z,57.00
2018-08-02T13:25:46.610Z,56.90
2018-08-02T13:28:13.833Z,56.90
2018-08-02T13:30:41.081Z,57.10
2018-08-02T13:33:08.270Z,57.10
2018-08-02T13:35:35.576Z,57.10
2018-08-02T13:38:02.764Z,57.20
2018-08-02T13:40:29.989Z,57.30
2018-08-02T13:42:57.228Z,57.20
2018-08-02T13:45:24.425Z,56.80
2018-08-02T13:47:51.639Z,56.50
2018-08-02T13:50:18.932Z,57.10
2018-08-02T13:55:13.317Z,56.50
2018-08-02T13:57:40.468Z,56.80
2018-08-02T14:00:07.742Z,57.00
2018-08-02T14:02:34.945Z,57.20
2018-08-02T14:05:02.182Z,57.30
2018-08-02T14:07:29.331Z,57.40
2018-08-02T14:09:56.482Z,57.50
2018-08-02T14:12:23.730Z,57.50
2018-08-02T14:14:50.965Z,57.60
2018-08-02T14:17:18.169Z,57.60
2018-08-02T14:19:45.317Z,58.20
2018-08-02T14:22:12.603Z,57.50
2018-08-02T14:24:39.735Z,57.50
2018-08-02T14:27:06.933Z,57.50
2018-08-02T14:29:34.092Z,57.60
2018-08-02T14:32:01.258Z,57.60
2018-08-02T14:34:28.467Z,57.60
2018-08-02T14:36:55.700Z,57.60
2018-08-02T14:39:22.936Z,57.60
2018-08-02T14:41:50.188Z,57.60
2018-08-02T14:44:17.389Z,58.30
2018-08-02T14:46:44.586Z,57.70
2018-08-02T14:49:11.809Z,57.80
2018-08-02T14:51:39.000Z,58.30
2018-08-02T14:54:06.283Z,57.90
2018-08-02T14:56:33.908Z,57.90
2018-08-02T14:59:01.063Z,57.80
2018-08-02T15:01:28.296Z,57.90
2018-08-02T15:03:55.491Z,57.90
2018-08-02T15:06:23.551Z,57.90
2018-08-02T15:08:50.796Z,57.90
2018-08-02T15:11:17.952Z,57.90
2018-08-02T15:13:45.196Z,57.90
2018-08-02T15:16:12.436Z,57.80
2018-08-02T15:18:39.644Z,57.80
2018-08-02T15:21:06.880Z,58.40
2018-08-02T15:23:34.044Z,57.80
2018-08-02T15:26:01.208Z,57.80
2018-08-02T15:28:28.423Z,57.80
2018-08-02T15:30:55.654Z,57.80
2018-08-02T15:33:22.932Z,57.70
2018-08-02T15:35:50.160Z,57.70
2018-08-02T15:38:17.404Z,57.60
2018-08-02T15:40:44.560Z,57.60
2018-08-02T15:43:11.821Z,57.60
2018-08-02T15:45:39.052Z,57.70
2018-08-02T15:48:06.296Z,57.60
2018-08-02T15:50:33.501Z,57.80
2018-08-02T15:53:00.713Z,57.70
2018-08-02T15:57:55.115Z,57.90
2018-08-02T16:00:22.324Z,57.80
2018-08-02T16:02:49.560Z,57.80
2018-08-02T16:05:16.769Z,57.80
2018-08-02T16:07:43.977Z,58.00
2018-08-02T16:10:11.204Z,57.80
2018-08-02T16:12:38.368Z,57.80
2018-08-02T16:15:06.177Z,57.90
2018-08-02T16:17:33.448Z,57.80
2018-08-02T16:20:00.650Z,57.90
2018-08-02T16:22:27.857Z,57.80
2018-08-02T16:24:55.145Z,57.80
2018-08-02T16:27:22.353Z,57.90
2018-08-02T16:29:49.576Z,57.80
2018-08-02T16:32:16.776Z,57.70
2018-08-02T16:34:44.041Z,57.70
2018-08-02T16:37:11.299Z,57.60
2018-08-02T16:39:38.492Z,57.60
2018-08-02T16:42:05.924Z,57.50
2018-08-02T16:44:33.696Z,57.10
2018-08-02T16:47:01.093Z,57.60
2018-08-02T16:49:28.387Z,57.60
2018-08-02T16:51:55.575Z,57.70
2018-08-02T16:54:22.848Z,57.80
2018-08-02T16:56:50.135Z,57.90
2018-08-02T16:59:17.396Z,58.00
2018-08-02T17:01:44.649Z,58.10
2018-08-02T17:04:11.912Z,58.20
2018-08-02T17:06:39.141Z,58.30
2018-08-02T17:09:07.484Z,58.40
2018-08-02T17:11:34.824Z,58.50
2018-08-02T17:14:02.050Z,58.60
2018-08-02T17:16:29.239Z,58.40
2018-08-02T17:18:56.491Z,58.70
2018-08-02T17:21:23.653Z,58.80
2018-08-02T17:23:50.861Z,58.80
2018-08-02T17:26:18.084Z,58.60
2018-08-02T17:28:45.273Z,58.60
2018-08-02T17:31:12.484Z,58.60
2018-08-02T17:33:39.673Z,58.40
2018-08-02T17:36:06.876Z,58.50
2018-08-02T17:38:34.046Z,58.60
2018-08-02T17:41:01.280Z,58.50
2018-08-02T17:43:28.448Z,58.40
2018-08-02T17:45:55.648Z,58.40
2018-08-02T17:48:22.839Z,58.40
2018-08-02T17:50:50.106Z,58.50
2018-08-02T17:53:17.328Z,58.60
2018-08-02T17:55:44.508Z,58.80
2018-08-02T17:58:11.715Z,58.90
2018-08-02T18:00:38.954Z,59.00
2018-08-02T18:03:06.196Z,59.10
2018-08-02T18:05:33.416Z,59.10
2018-08-02T18:08:00.628Z,59.40
2018-08-02T18:10:27.855Z,59.70
2018-08-02T18:12:55.064Z,59.90
2018-08-02T18:15:22.270Z,60.10
2018-08-02T18:17:49.516Z,60.10
2018-08-02T18:20:16.724Z,60.20
2018-08-02T18:22:43.912Z,60.30
2018-08-02T18:25:11.199Z,60.20
2018-08-02T18:27:38.413Z,60.40
2018-08-02T18:30:06.185Z,60.60
2018-08-02T18:32:33.689Z,60.60
2018-08-02T18:35:00.888Z,60.50
2018-08-02T18:37:28.117Z,60.40
2018-08-02T18:39:55.289Z,60.40
2018-08-02T18:42:22.525Z,60.40
2018-08-02T18:44:49.737Z,60.40
2018-08-02T18:47:16.922Z,60.50
2018-08-02T18:49:44.054Z,60.50
2018-08-02T18:52:11.240Z,60.40
2018-08-02T18:54:38.436Z,60.40
2018-08-02T18:57:06.137Z,60.40
2018-08-02T18:59:33.352Z,60.40
2018-08-02T19:02:00.521Z,60.30
2018-08-02T19:04:27.849Z,60.30
2018-08-02T19:06:55.032Z,60.00
2018-08-02T19:09:22.213Z,59.90
2018-08-02T19:11:49.368Z,59.80
2018-08-02T19:14:19.576Z,59.70
2018-08-02T19:16:46.852Z,59.60
2018-08-02T19:19:14.096Z,59.40
2018-08-02T19:21:41.313Z,59.20
2018-08-02T19:24:08.599Z,59.20
2018-08-02T19:26:35.694Z,59.00
2018-08-02T19:29:02.970Z,59.00
2018-08-02T19:31:30.355Z,58.80
2018-08-02T19:33:57.529Z,58.80
2018-08-02T19:36:24.710Z,58.70
2018-08-02T19:38:51.951Z,58.60
2018-08-02T19:41:19.156Z,58.50
2018-08-02T19:43:46.504Z,58.40
2018-08-02T19:46:13.717Z,58.40
2018-08-02T19:48:40.896Z,58.30
2018-08-02T19:51:08.304Z,58.30
2018-08-02T19:53:35.536Z,58.20
2018-08-02T19:56:02.860Z,58.20
2018-08-02T19:58:30.132Z,58.20
2018-08-02T20:00:57.440Z,58.10
2018-08-02T20:03:24.669Z,58.10
2018-08-02T20:05:52.219Z,58.10
2018-08-02T20:08:19.400Z,58.10
2018-08-02T20:10:46.715Z,58.10
2018-08-02T20:13:13.813Z,58.00
2018-08-02T20:15:41.018Z,57.90
2018-08-02T20:18:08.273Z,57.90
2018-08-02T20:20:35.456Z,57.80
2018-08-02T20:23:02.709Z,57.80
2018-08-02T20:25:29.893Z,57.70
2018-08-02T20:27:57.182Z,57.70
2018-08-02T20:30:24.249Z,57.60
2018-08-02T20:32:51.965Z,57.70
2018-08-02T20:35:19.147Z,57.70
2018-08-02T20:37:46.357Z,57.60
2018-08-02T20:40:13.533Z,57.60
2018-08-02T20:42:40.828Z,57.60
2018-08-02T20:45:08.068Z,57.60
2018-08-02T20:47:35.732Z,57.60
2018-08-02T20:50:03.721Z,57.60
2018-08-02T20:52:30.937Z,57.50
2018-08-02T20:54:58.180Z,57.00
2018-08-02T20:57:25.393Z,57.40
2018-08-02T20:59:52.537Z,57.40
2018-08-02T21:02:19.741Z,57.40
2018-08-02T21:04:46.949Z,57.40
2018-08-02T21:07:14.221Z,57.50
2018-08-02T21:09:41.400Z,57.40
2018-08-02T21:12:08.552Z,57.50
2018-08-02T21:14:35.792Z,57.60
2018-08-02T21:17:03.012Z,57.60
2018-08-02T21:19:30.298Z,57.60
2018-08-02T21:21:57.528Z,57.70
2018-08-02T21:24:24.720Z,57.70
2018-08-02T21:26:52.016Z,57.80
2018-08-02T21:29:19.228Z,57.90
2018-08-02T21:31:46.441Z,58.00
2018-08-02T21:34:13.689Z,58.10
2018-08-02T21:36:40.876Z,58.10
2018-08-02T21:39:08.692Z,58.20
2018-08-02T21:41:35.916Z,58.30
2018-08-02T21:46:31.128Z,58.40
2018-08-02T21:48:58.445Z,58.40
2018-08-02T21:51:25.691Z,58.50
2018-08-02T21:53:52.909Z,58.50
2018-08-02T21:56:20.113Z,58.60
2018-08-02T21:58:47.300Z,58.60
2018-08-02T22:01:14.544Z,58.80
2018-08-02T22:03:42.392Z,58.80
2018-08-02T22:06:15.680Z,58.90
2018-08-02T22:08:42.914Z,58.90
2018-08-02T22:11:10.189Z,59.10
2018-08-02T22:13:43.221Z,59.20
2018-08-02T22:16:16.097Z,59.20
2018-08-02T22:18:43.414Z,59.30
2018-08-02T22:21:10.649Z,59.30
2018-08-02T22:23:37.872Z,59.50
2018-08-02T22:26:05.109Z,59.50
2018-08-02T22:28:32.365Z,59.60
2018-08-02T22:30:59.611Z,59.70
2018-08-02T22:35:54.009Z,59.90
2018-08-02T22:40:48.449Z,60.00
2018-08-02T22:43:15.675Z,60.10
2018-08-02T22:45:42.877Z,60.30
2018-08-02T22:48:10.072Z,60.40
2018-08-02T22:50:37.348Z,60.50
2018-08-02T22:53:05.376Z,60.60
2018-08-02T22:55:32.564Z,60.70
2018-08-02T22:57:59.704Z,60.70
2018-08-02T23:00:26.908Z,60.80
2018-08-02T23:02:54.122Z,60.70
2018-08-02T23:05:21.347Z,60.70
2018-08-02T23:07:48.520Z,60.80
2018-08-02T23:10:15.692Z,60.90
2018-08-02T23:12:42.908Z,60.80
2018-08-02T23:15:10.127Z,61.00
2018-08-02T23:17:37.516Z,61.00
2018-08-02T23:20:05.931Z,61.20
2018-08-02T23:22:33.144Z,61.00
2018-08-02T23:25:00.320Z,61.00
2018-08-02T23:27:27.564Z,61.00
2018-08-02T23:29:54.812Z,61.10
2018-08-02T23:32:22.044Z,61.00
2018-08-02T23:34:49.272Z,61.00
2018-08-02T23:37:16.444Z,61.10
2018-08-02T23:39:43.584Z,61.40
2018-08-02T23:42:10.787Z,61.00
2018-08-02T23:44:37.964Z,60.80
2018-08-02T23:47:05.170Z,60.70
2018-08-02T23:49:32.428Z,60.80
2018-08-02T23:51:59.676Z,60.90
2018-08-02T23:54:26.856Z,60.70
2018-08-02T23:56:54.075Z,60.70
2018-08-02T23:59:21.819Z,60.50
